createdAt,value
2018-07-20T00:01:57.645Z,13.60
2018-07-20T00:04:26.190Z,13.70
2018-07-20T00:06:54.734Z,13.80
2018-07-20T00:09:23.266Z,13.90
2018-07-20T00:11:51.719Z,13.80
2018-07-20T00:14:20.495Z,13.80
2018-07-20T00:16:48.931Z,13.80
2018-07-20T00:19:17.411Z,13.70
2018-07-20T00:21:45.849Z,13.60
2018-07-20T00:24:14.304Z,13.60
2018-07-20T00:26:42.737Z,13.50
2018-07-20T00:29:11.173Z,13.40
2018-07-20T00:31:39.600Z,13.40
2018-07-20T00:34:08.034Z,13.30
2018-07-20T00:36:36.463Z,13.20
2018-07-20T00:39:08.346Z,13.20
2018-07-20T00:41:36.767Z,13.20
2018-07-20T00:44:05.217Z,13.20
2018-07-20T00:46:33.713Z,13.20
2018-07-20T00:49:02.160Z,13.30
2018-07-20T00:51:30.591Z,13.30
2018-07-20T00:53:59.041Z,13.30
2018-07-20T00:56:27.475Z,13.30
2018-07-20T00:58:55.934Z,13.20
2018-07-20T01:01:24.359Z,13.10
2018-07-20T01:03:52.778Z,13.10
2018-07-20T01:06:21.910Z,13.00
2018-07-20T01:08:50.360Z,13.00
2018-07-20T01:11:18.869Z,12.90
2018-07-20T01:13:47.329Z,13.00
2018-07-20T01:16:15.750Z,12.90
2018-07-20T01:18:44.174Z,12.80
2018-07-20T01:21:12.609Z,12.80
2018-07-20T01:23:41.042Z,12.80
2018-07-20T01:26:09.491Z,12.70
2018-07-20T01:28:37.921Z,12.70
2018-07-20T01:31:06.351Z,12.60
2018-07-20T01:33:34.790Z,12.60
2018-07-20T01:36:03.288Z,12.60
2018-07-20T01:38:31.731Z,12.50
2018-07-20T01:43:50.665Z,12.50
2018-07-20T01:46:19.116Z,12.50
2018-07-20T01:48:47.540Z,12.50
2018-07-20T01:51:15.969Z,12.50
2018-07-20T01:53:44.392Z,12.50
2018-07-20T01:56:12.801Z,12.40
2018-07-20T01:58:41.261Z,12.40
2018-07-20T02:01:09.710Z,12.40
2018-07-20T02:03:38.153Z,12.50
2018-07-20T02:06:06.678Z,12.30
2018-07-20T02:08:35.119Z,12.40
2018-07-20T02:11:03.570Z,12.40
2018-07-20T02:13:32.003Z,12.30
2018-07-20T02:16:00.510Z,12.30
2018-07-20T02:18:28.937Z,12.30
2018-07-20T02:20:57.354Z,12.30
2018-07-20T02:23:25.782Z,12.30
2018-07-20T02:25:54.664Z,12.30
2018-07-20T02:28:23.124Z,12.40
2018-07-20T02:30:51.559Z,12.30
2018-07-20T02:33:20.036Z,12.30
2018-07-20T02:35:48.523Z,12.20
2018-07-20T02:38:16.988Z,12.30
2018-07-20T02:40:45.452Z,12.20
2018-07-20T02:43:18.177Z,12.10
2018-07-20T02:45:48.282Z,12.10
2018-07-20T02:48:17.575Z,12.00
2018-07-20T02:50:49.545Z,12.00
2018-07-20T02:53:20.491Z,12.00
2018-07-20T02:55:50.038Z,12.10
2018-07-20T02:58:19.127Z,12.00
2018-07-20T03:00:48.778Z,12.00
2018-07-20T03:03:18.118Z,11.90
2018-07-20T03:05:49.157Z,11.80
2018-07-20T03:08:17.811Z,11.80
2018-07-20T03:10:48.265Z,11.80
2018-07-20T03:13:17.536Z,11.70
2018-07-20T03:15:46.974Z,11.70
2018-07-20T03:18:15.555Z,11.70
2018-07-20T03:20:45.949Z,11.80
2018-07-20T03:23:14.786Z,11.80
2018-07-20T03:25:44.483Z,11.70
2018-07-20T03:28:15.897Z,11.60
2018-07-20T03:30:44.745Z,11.70
2018-07-20T03:33:13.169Z,11.70
2018-07-20T03:35:41.586Z,11.60
2018-07-20T03:38:10.046Z,11.70
2018-07-20T03:40:38.517Z,11.80
2018-07-20T03:43:07.003Z,11.80
2018-07-20T03:45:35.470Z,11.70
2018-07-20T03:48:03.987Z,11.80
2018-07-20T03:50:32.451Z,11.90
2018-07-20T03:53:00.869Z,11.90
2018-07-20T03:55:29.307Z,11.90
2018-07-20T03:57:59.577Z,11.90
2018-07-20T04:00:30.070Z,11.90
2018-07-20T04:03:00.115Z,11.90
2018-07-20T04:05:28.662Z,11.90
2018-07-20T04:07:57.102Z,12.00
2018-07-20T04:10:25.518Z,12.20
2018-07-20T04:12:54.005Z,12.30
2018-07-20T04:15:22.440Z,12.40
2018-07-20T04:17:50.884Z,12.30
2018-07-20T04:20:19.345Z,12.30
2018-07-20T04:22:47.817Z,12.40
2018-07-20T04:25:19.879Z,12.50
2018-07-20T04:27:48.361Z,12.60
2018-07-20T04:30:18.035Z,12.60
2018-07-20T04:32:46.529Z,12.60
2018-07-20T04:35:17.244Z,12.70
2018-07-20T04:37:45.653Z,12.70
2018-07-20T04:40:14.150Z,12.70
2018-07-20T04:42:42.594Z,12.70
2018-07-20T04:45:12.250Z,12.80
2018-07-20T04:47:40.712Z,13.00
2018-07-20T04:50:09.185Z,13.10
2018-07-20T04:52:38.697Z,13.20
2018-07-20T04:55:08.277Z,13.40
2018-07-20T04:57:38.072Z,13.40
2018-07-20T05:00:08.126Z,13.50
2018-07-20T05:02:36.556Z,13.60
2018-07-20T05:05:07.605Z,13.80
2018-07-20T05:10:04.550Z,14.00
2018-07-20T05:12:32.954Z,14.00
2018-07-20T05:15:01.392Z,14.00
2018-07-20T05:17:29.799Z,14.00
2018-07-20T05:19:58.230Z,14.10
2018-07-20T05:22:26.675Z,14.30
2018-07-20T05:24:55.137Z,14.40
2018-07-20T05:27:23.594Z,14.50
2018-07-20T05:29:52.721Z,14.80
2018-07-20T05:32:21.158Z,14.90
2018-07-20T05:34:49.596Z,15.10
2018-07-20T05:37:18.057Z,15.00
2018-07-20T05:39:46.457Z,15.00
2018-07-20T05:42:14.889Z,15.20
2018-07-20T05:44:43.306Z,15.30
2018-07-20T05:47:12.167Z,15.40
2018-07-20T05:49:40.599Z,15.60
2018-07-20T05:52:09.065Z,15.80
2018-07-20T05:54:37.486Z,15.70
2018-07-20T05:57:05.922Z,16.10
2018-07-20T05:59:34.413Z,16.40
2018-07-20T06:02:02.870Z,16.60
2018-07-20T06:04:31.294Z,16.70
2018-07-20T06:06:59.705Z,17.00
2018-07-20T06:09:28.121Z,17.00
2018-07-20T06:11:56.562Z,17.00
2018-07-20T06:14:24.995Z,17.00
2018-07-20T06:19:21.589Z,17.40
2018-07-20T06:21:50.033Z,17.50
2018-07-20T06:24:18.471Z,17.70
2018-07-20T06:26:46.940Z,18.00
2018-07-20T06:29:15.377Z,18.30
2018-07-20T06:31:43.858Z,18.80
2018-07-20T06:34:12.281Z,19.10
2018-07-20T06:36:40.715Z,19.40
2018-07-20T06:39:11.041Z,19.40
2018-07-20T06:44:07.656Z,19.50
2018-07-20T06:46:36.842Z,19.90
2018-07-20T06:49:05.873Z,20.00
2018-07-20T06:51:34.457Z,20.30
2018-07-20T06:54:02.941Z,20.40
2018-07-20T06:56:31.402Z,20.60
2018-07-20T06:58:59.915Z,20.80
2018-07-20T07:01:28.337Z,21.00
2018-07-20T07:03:56.912Z,21.20
2018-07-20T07:06:25.370Z,21.30
2018-07-20T07:08:53.788Z,21.30
2018-07-20T07:11:22.285Z,21.40
2018-07-20T07:13:50.705Z,21.70
2018-07-20T07:16:19.498Z,21.20
2018-07-20T07:18:47.916Z,21.50
2018-07-20T07:21:16.350Z,21.90
2018-07-20T07:23:44.875Z,21.90
2018-07-20T07:26:13.257Z,22.50
2018-07-20T07:28:41.734Z,23.20
2018-07-20T07:31:10.201Z,23.60
2018-07-20T07:33:38.616Z,23.80
2018-07-20T07:36:07.080Z,24.00
2018-07-20T07:38:35.505Z,24.10
2018-07-20T07:41:03.951Z,24.50
2018-07-20T07:43:32.382Z,24.90
2018-07-20T07:46:00.802Z,25.30
2018-07-20T07:48:29.279Z,25.50
2018-07-20T07:50:57.700Z,25.60
2018-07-20T07:53:26.141Z,25.50
2018-07-20T07:55:55.822Z,25.80
2018-07-20T07:58:24.261Z,25.50
2018-07-20T08:00:52.714Z,25.60
2018-07-20T08:03:21.143Z,25.70
2018-07-20T08:05:50.477Z,25.80
2018-07-20T08:08:18.986Z,25.80
2018-07-20T08:10:47.545Z,26.70
2018-07-20T08:13:15.989Z,27.10
2018-07-20T08:15:44.441Z,27.00
2018-07-20T08:18:12.853Z,27.00
2018-07-20T08:20:41.285Z,27.10
2018-07-20T08:25:37.844Z,28.60
2018-07-20T08:28:06.356Z,29.20
2018-07-20T08:30:35.156Z,29.70
2018-07-20T08:33:03.747Z,29.40
2018-07-20T08:35:32.241Z,29.40
2018-07-20T08:38:00.698Z,30.20
2018-07-20T08:40:29.318Z,30.50
2018-07-20T08:42:57.786Z,31.30
2018-07-20T08:45:26.245Z,32.20
2018-07-20T08:47:54.662Z,32.30
2018-07-20T08:50:23.085Z,32.70
2018-07-20T08:52:51.530Z,32.90
2018-07-20T08:55:19.998Z,32.70
2018-07-20T08:57:48.469Z,33.00
2018-07-20T09:00:16.938Z,32.80
2018-07-20T09:02:45.357Z,33.00
2018-07-20T09:05:13.777Z,33.30
2018-07-20T09:07:42.257Z,33.40
2018-07-20T09:10:10.850Z,34.30
2018-07-20T09:12:39.333Z,34.40
2018-07-20T09:15:07.830Z,34.60
2018-07-20T09:17:36.259Z,35.60
2018-07-20T09:20:04.720Z,34.90
2018-07-20T09:22:33.159Z,34.60
2018-07-20T09:25:01.571Z,34.90
2018-07-20T09:27:30.064Z,34.20
2018-07-20T09:29:58.480Z,34.40
2018-07-20T09:32:26.900Z,35.00
2018-07-20T09:34:55.312Z,35.20
2018-07-20T09:37:23.762Z,35.50
2018-07-20T09:39:52.225Z,35.00
2018-07-20T09:44:48.807Z,34.80
2018-07-20T09:47:17.244Z,35.00
2018-07-20T09:49:45.669Z,35.50
2018-07-20T09:52:14.137Z,36.40
2018-07-20T09:54:42.551Z,36.40
2018-07-20T09:57:10.997Z,35.40
2018-07-20T09:59:39.463Z,34.00
2018-07-20T10:02:07.895Z,34.20
2018-07-20T10:04:36.313Z,34.60
2018-07-20T10:07:04.788Z,35.00
2018-07-20T10:09:33.249Z,35.60
2018-07-20T10:12:01.690Z,35.70
2018-07-20T10:14:30.169Z,36.00
2018-07-20T10:16:58.606Z,36.30
2018-07-20T10:19:27.070Z,36.60
2018-07-20T10:21:55.505Z,36.00
2018-07-20T10:24:23.933Z,36.70
2018-07-20T10:26:52.366Z,36.30
2018-07-20T10:29:20.793Z,35.20
2018-07-20T10:31:49.270Z,35.20
2018-07-20T10:34:18.624Z,33.40
2018-07-20T10:36:47.034Z,34.40
2018-07-20T10:39:15.457Z,33.40
2018-07-20T10:41:43.870Z,35.10
2018-07-20T10:44:12.282Z,35.00
2018-07-20T10:46:40.751Z,34.70
2018-07-20T10:49:09.261Z,34.60
2018-07-20T10:51:37.677Z,34.70
2018-07-20T10:54:06.238Z,35.80
2018-07-20T10:56:34.697Z,35.20
2018-07-20T11:01:31.315Z,35.00
2018-07-20T11:03:59.713Z,35.60
2018-07-20T11:06:28.126Z,34.80
2018-07-20T11:08:56.562Z,35.00
2018-07-20T11:11:24.979Z,34.20
2018-07-20T11:13:53.425Z,34.30
2018-07-20T11:16:21.877Z,34.00
2018-07-20T11:18:50.321Z,34.60
2018-07-20T11:21:18.754Z,34.20
2018-07-20T11:23:47.201Z,32.90
2018-07-20T11:26:15.605Z,32.70
2018-07-20T11:28:44.042Z,32.90
2018-07-20T11:31:12.481Z,33.10
2018-07-20T11:33:40.925Z,34.30
2018-07-20T11:36:09.370Z,34.90
2018-07-20T11:38:37.821Z,35.00
2018-07-20T11:41:06.301Z,35.80
2018-07-20T11:43:34.732Z,35.90
2018-07-20T11:46:03.225Z,35.80
2018-07-20T11:48:31.685Z,36.20
2018-07-20T11:51:00.116Z,35.90
2018-07-20T11:53:28.569Z,35.00
2018-07-20T11:55:57.147Z,35.40
2018-07-20T11:58:25.586Z,35.60
2018-07-20T12:00:54.074Z,34.60
2018-07-20T12:03:22.527Z,33.10
2018-07-20T12:05:50.947Z,32.20
2018-07-20T12:08:19.375Z,32.30
2018-07-20T12:10:47.838Z,32.30
2018-07-20T12:13:16.276Z,32.40
2018-07-20T12:15:44.697Z,33.90
2018-07-20T12:18:13.145Z,33.70
2018-07-20T12:20:41.577Z,33.50
2018-07-20T12:23:09.997Z,33.50
2018-07-20T12:25:38.430Z,32.90
2018-07-20T12:28:06.875Z,32.40
2018-07-20T12:30:35.292Z,32.30
2018-07-20T12:33:03.779Z,33.00
2018-07-20T12:35:32.237Z,33.40
2018-07-20T12:38:00.679Z,33.30
2018-07-20T12:40:29.129Z,32.60
2018-07-20T12:42:57.542Z,32.20
2018-07-20T12:45:25.987Z,31.90
2018-07-20T12:47:54.423Z,31.60
2018-07-20T12:50:22.937Z,31.50
2018-07-20T12:52:51.519Z,31.20
2018-07-20T12:55:20.052Z,30.70
2018-07-20T12:57:49.794Z,30.90
2018-07-20T13:00:18.262Z,31.30
2018-07-20T13:02:46.709Z,31.70
2018-07-20T13:05:15.165Z,32.50
2018-07-20T13:07:43.614Z,33.60
2018-07-20T13:10:12.090Z,33.70
2018-07-20T13:12:40.547Z,33.40
2018-07-20T13:15:09.002Z,33.50
2018-07-20T13:17:37.458Z,32.90
2018-07-20T13:20:06.202Z,32.40
2018-07-20T13:22:34.754Z,32.30
2018-07-20T13:25:03.247Z,32.30
2018-07-20T13:27:31.665Z,32.50
2018-07-20T13:30:00.091Z,32.50
2018-07-20T13:32:28.572Z,32.20
2018-07-20T13:34:57.004Z,32.80
2018-07-20T13:37:25.426Z,33.10
2018-07-20T13:39:53.900Z,32.90
2018-07-20T13:42:22.295Z,32.70
2018-07-20T13:44:50.947Z,32.70
2018-07-20T13:47:21.298Z,33.10
2018-07-20T13:49:49.733Z,33.70
2018-07-20T13:54:46.316Z,34.30
2018-07-20T13:57:14.758Z,33.80
2018-07-20T13:59:43.255Z,33.60
2018-07-20T14:02:11.717Z,33.20
2018-07-20T14:04:40.867Z,33.10
2018-07-20T14:07:09.289Z,33.20
2018-07-20T14:09:37.758Z,33.00
2018-07-20T14:12:06.207Z,32.90
2018-07-20T14:14:34.622Z,33.10
2018-07-20T14:17:03.083Z,33.10
2018-07-20T14:19:31.531Z,33.10
2018-07-20T14:21:59.969Z,33.50
2018-07-20T14:24:28.392Z,33.20
2018-07-20T14:26:56.829Z,32.90
2018-07-20T14:29:25.269Z,32.80
2018-07-20T14:31:53.714Z,32.70
2018-07-20T14:34:22.137Z,32.50
2018-07-20T14:36:50.598Z,32.30
2018-07-20T14:39:19.019Z,32.20
2018-07-20T14:44:15.562Z,31.70
2018-07-20T14:46:43.980Z,31.90
2018-07-20T14:49:12.459Z,32.00
2018-07-20T14:51:40.891Z,31.90
2018-07-20T14:54:09.359Z,31.70
2018-07-20T14:56:37.810Z,31.20
2018-07-20T14:59:06.289Z,30.70
2018-07-20T15:01:34.715Z,30.10
2018-07-20T15:04:03.158Z,30.00
2018-07-20T15:06:31.611Z,30.00
2018-07-20T15:09:00.039Z,30.10
2018-07-20T15:11:28.630Z,30.20
2018-07-20T15:13:57.081Z,30.30
2018-07-20T15:16:25.501Z,30.40
2018-07-20T15:18:53.993Z,30.60
2018-07-20T15:21:22.503Z,30.80
2018-07-20T15:23:50.918Z,31.10
2018-07-20T15:26:19.368Z,31.00
2018-07-20T15:28:47.797Z,31.60
2018-07-20T15:31:16.260Z,31.50
2018-07-20T15:33:44.716Z,31.60
2018-07-20T15:36:13.246Z,31.70
2018-07-20T15:38:41.690Z,31.70
2018-07-20T15:41:10.307Z,31.60
2018-07-20T15:43:39.936Z,31.50
2018-07-20T15:46:08.411Z,31.20
2018-07-20T15:48:37.974Z,31.30
2018-07-20T15:51:07.014Z,31.10
2018-07-20T15:53:36.274Z,30.80
2018-07-20T15:56:04.027Z,30.40
2018-07-20T15:58:32.514Z,30.50
2018-07-20T16:01:00.958Z,30.40
2018-07-20T16:03:29.393Z,30.30
2018-07-20T16:05:58.112Z,30.20
2018-07-20T16:08:26.493Z,30.40
2018-07-20T16:10:54.941Z,30.30
2018-07-20T16:13:23.438Z,30.40
2018-07-20T16:15:51.909Z,30.40
2018-07-20T16:20:48.518Z,30.50
2018-07-20T16:23:19.416Z,30.70
2018-07-20T16:25:49.447Z,30.70
2018-07-20T16:28:20.123Z,30.70
2018-07-20T16:30:50.291Z,30.70
2018-07-20T16:33:20.151Z,30.50
2018-07-20T16:35:50.207Z,30.40
2018-07-20T16:38:21.094Z,30.20
2018-07-20T16:40:49.565Z,30.10
2018-07-20T16:43:18.003Z,30.00
2018-07-20T16:45:46.414Z,30.00
2018-07-20T16:48:14.817Z,29.80
2018-07-20T16:50:43.353Z,29.60
2018-07-20T16:53:11.753Z,29.50
2018-07-20T16:55:40.170Z,29.60
2018-07-20T16:58:08.624Z,29.50
2018-07-20T17:00:37.088Z,29.60
2018-07-20T17:03:05.501Z,29.40
2018-07-20T17:05:34.000Z,29.30
2018-07-20T17:08:02.541Z,29.10
2018-07-20T17:10:31.045Z,29.00
2018-07-20T17:12:59.494Z,28.60
2018-07-20T17:15:27.975Z,28.40
2018-07-20T17:17:56.422Z,28.20
2018-07-20T17:20:24.846Z,28.00
2018-07-20T17:22:53.269Z,27.80
2018-07-20T17:25:21.728Z,27.50
2018-07-20T17:27:50.232Z,27.40
2018-07-20T17:30:18.758Z,27.30
2018-07-20T17:32:47.196Z,27.20
2018-07-20T17:35:15.646Z,27.00
2018-07-20T17:37:44.104Z,26.90
2018-07-20T17:40:12.652Z,26.50
2018-07-20T17:42:41.082Z,26.30
2018-07-20T17:45:09.580Z,26.20
2018-07-20T17:47:38.018Z,26.00
2018-07-20T17:50:06.503Z,25.70
2018-07-20T17:52:34.962Z,25.40
2018-07-20T17:55:04.742Z,24.90
2018-07-20T17:57:33.161Z,24.40
2018-07-20T18:00:01.706Z,24.10
2018-07-20T18:02:30.358Z,24.00
2018-07-20T18:04:58.885Z,23.80
2018-07-20T18:07:27.512Z,23.80
2018-07-20T18:09:55.976Z,23.80
2018-07-20T18:12:24.457Z,23.80
2018-07-20T18:14:53.969Z,23.80
2018-07-20T18:17:22.570Z,23.80
2018-07-20T18:19:51.023Z,23.70
2018-07-20T18:22:19.617Z,23.70
2018-07-20T18:24:48.049Z,23.60
2018-07-20T18:27:16.723Z,23.60
2018-07-20T18:29:45.049Z,23.60
2018-07-20T18:32:13.505Z,23.60
2018-07-20T18:34:41.985Z,23.50
2018-07-20T18:37:10.474Z,23.50
2018-07-20T18:39:38.934Z,23.40
2018-07-20T18:42:07.450Z,23.40
2018-07-20T18:44:36.071Z,23.40
2018-07-20T18:47:04.666Z,23.40
2018-07-20T18:49:33.333Z,23.20
2018-07-20T18:52:01.974Z,23.20
2018-07-20T18:54:33.656Z,23.20
2018-07-20T18:57:02.180Z,23.20
2018-07-20T18:59:30.661Z,23.20
2018-07-20T19:01:59.095Z,23.30
2018-07-20T19:04:28.908Z,23.20
2018-07-20T19:06:57.551Z,23.20
2018-07-20T19:09:28.498Z,23.30
2018-07-20T19:11:57.247Z,23.30
2018-07-20T19:14:26.996Z,23.30
2018-07-20T19:16:55.995Z,23.10
2018-07-20T19:19:24.645Z,23.10
2018-07-20T19:21:53.308Z,23.10
2018-07-20T19:24:21.845Z,23.10
2018-07-20T19:26:50.461Z,23.10
2018-07-20T19:29:19.169Z,23.10
2018-07-20T19:31:47.722Z,23.10
2018-07-20T19:34:16.296Z,23.00
2018-07-20T19:36:45.023Z,22.90
2018-07-20T19:39:13.765Z,22.90
2018-07-20T19:41:42.254Z,22.90
2018-07-20T19:44:12.284Z,22.80
2018-07-20T19:46:45.333Z,22.80
2018-07-20T19:49:13.877Z,22.70
2018-07-20T19:51:42.379Z,22.70
2018-07-20T19:54:10.876Z,22.70
2018-07-20T19:56:39.309Z,22.40
2018-07-20T19:59:13.706Z,22.50
2018-07-20T20:01:42.153Z,22.40
2018-07-20T20:04:10.632Z,22.40
2018-07-20T20:06:39.077Z,22.40
2018-07-20T20:09:09.290Z,22.30
2018-07-20T20:11:37.768Z,22.30
2018-07-20T20:16:34.556Z,22.10
2018-07-20T20:19:04.416Z,22.10
2018-07-20T20:21:32.902Z,22.00
2018-07-20T20:24:01.346Z,21.90
2018-07-20T20:26:29.781Z,21.70
2018-07-20T20:28:58.332Z,21.60
2018-07-20T20:31:26.794Z,21.50
2018-07-20T20:33:55.288Z,21.40
2018-07-20T20:36:24.676Z,21.30
2018-07-20T20:38:54.288Z,21.10
2018-07-20T20:41:23.468Z,21.00
2018-07-20T20:43:52.612Z,20.80
2018-07-20T20:46:21.498Z,20.80
2018-07-20T20:48:50.641Z,20.70
2018-07-20T20:51:19.977Z,20.50
2018-07-20T20:53:48.907Z,20.40
2018-07-20T20:56:17.938Z,20.40
2018-07-20T20:58:47.253Z,20.40
2018-07-20T21:01:16.167Z,20.40
2018-07-20T21:03:45.142Z,20.40
2018-07-20T21:06:14.217Z,20.40
2018-07-20T21:08:43.217Z,20.30
2018-07-20T21:13:40.949Z,20.30
2018-07-20T21:16:09.880Z,20.20
2018-07-20T21:18:38.950Z,20.20
2018-07-20T21:21:08.033Z,20.20
2018-07-20T21:23:36.964Z,20.20
2018-07-20T21:26:06.177Z,20.20
2018-07-20T21:28:34.670Z,20.20
2018-07-20T21:31:03.134Z,20.20
2018-07-20T21:33:31.591Z,20.20
2018-07-20T21:36:00.051Z,20.20
2018-07-20T21:38:28.740Z,20.20
2018-07-20T21:40:57.546Z,20.30
2018-07-20T21:43:26.004Z,20.30
2018-07-20T21:45:54.433Z,20.30
2018-07-20T21:48:22.875Z,20.30
2018-07-20T21:50:51.326Z,20.30
2018-07-20T21:53:19.770Z,20.30
2018-07-20T21:55:48.204Z,20.30
2018-07-20T21:58:16.682Z,20.30
2018-07-20T22:00:45.136Z,20.30
2018-07-20T22:03:13.600Z,20.20
2018-07-20T22:05:42.026Z,20.10
2018-07-20T22:08:16.105Z,20.10
2018-07-20T22:10:44.522Z,20.10
2018-07-20T22:13:13.040Z,20.10
2018-07-20T22:15:41.480Z,19.90
2018-07-20T22:18:13.902Z,19.90
2018-07-20T22:20:42.858Z,19.90
2018-07-20T22:23:13.397Z,19.90
2018-07-20T22:25:41.949Z,20.00
2018-07-20T22:28:10.382Z,20.00
2018-07-20T22:30:38.811Z,20.00
2018-07-20T22:33:07.353Z,20.00
2018-07-20T22:35:35.815Z,20.00
2018-07-20T22:38:04.262Z,20.00
2018-07-20T22:40:32.674Z,20.00
2018-07-20T22:43:02.135Z,19.90
2018-07-20T22:45:30.967Z,19.70
2018-07-20T22:47:59.402Z,19.60
2018-07-20T22:50:27.901Z,19.60
2018-07-20T22:52:56.317Z,19.60
2018-07-20T22:57:52.845Z,19.60
2018-07-20T23:00:21.370Z,19.50
2018-07-20T23:02:49.791Z,19.50
2018-07-20T23:05:18.214Z,19.40
2018-07-20T23:07:46.625Z,19.40
2018-07-20T23:10:15.095Z,19.30
2018-07-20T23:12:43.554Z,19.30
2018-07-20T23:15:12.004Z,19.30
2018-07-20T23:17:40.450Z,19.30
2018-07-20T23:20:08.866Z,19.30
2018-07-20T23:22:37.282Z,19.30
2018-07-20T23:25:05.745Z,19.30
2018-07-20T23:27:34.151Z,19.40
2018-07-20T23:30:02.584Z,19.30
2018-07-20T23:32:31.009Z,19.20
2018-07-20T23:34:59.467Z,19.10
2018-07-20T23:37:27.910Z,19.10
2018-07-20T23:39:56.328Z,19.10
2018-07-20T23:42:24.789Z,19.00
2018-07-20T23:44:53.208Z,19.00
2018-07-20T23:47:21.644Z,18.80
2018-07-20T23:49:50.313Z,18.80
2018-07-20T23:52:18.741Z,18.90
2018-07-20T23:54:48.412Z,18.80
2018-07-20T23:57:17.010Z,18.90
2018-07-20T23:59:45.535Z,18.90
